sensor_id;sensor_type;location;lat;lon;timestamp;pressure;altitude;pressure_sealevel;temperature;humidity
23016;BME280;11674;52.428;13.584;2023-07-31T00:01:19;100848.72;;;18.34;71.01
23016;BME280;11674;52.428;13.584;2023-07-31T00:06:26;100846.19;;;18.41;71.00
23016;BME280;11674;52.428;13.584;2023-07-31T00:11:33;100830.00;;;18.38;71.29
23016;BME280;11674;52.428;13.584;2023-07-31T00:16:40;100839.47;;;18.33;71.24
23016;BME280;11674;52.428;13.584;2023-07-31T00:21:47;100838.78;;;18.36;71.64
23016;BME280;11674;52.428;13.584;2023-07-31T00:26:54;100839.28;;;18.38;71.96
23016;BME280;11674;52.428;13.584;2023-07-31T00:32:01;100820.78;;;18.37;72.18
23016;BME280;11674;52.428;13.584;2023-07-31T00:37:10;100813.03;;;18.34;72.26
23016;BME280;11674;52.428;13.584;2023-07-31T00:42:17;100799.63;;;18.31;72.24
23016;BME280;11674;52.428;13.584;2023-07-31T00:47:25;100787.91;;;18.29;72.57
23016;BME280;11674;52.428;13.584;2023-07-31T00:52:31;100779.66;;;18.33;72.69
23016;BME280;11674;52.428;13.584;2023-07-31T00:57:41;100778.28;;;18.39;73.20
23016;BME280;11674;52.428;13.584;2023-07-31T01:02:51;100781.59;;;18.41;73.37
23016;BME280;11674;52.428;13.584;2023-07-31T01:08:18;100788.22;;;18.36;73.09
23016;BME280;11674;52.428;13.584;2023-07-31T01:13:26;100792.31;;;18.39;73.67
23016;BME280;11674;52.428;13.584;2023-07-31T01:18:33;100786.91;;;18.34;73.36
23016;BME280;11674;52.428;13.584;2023-07-31T01:29:36;100761.25;;;18.15;73.38
23016;BME280;11674;52.428;13.584;2023-07-31T01:34:45;100761.06;;;18.20;73.43
23016;BME280;11674;52.428;13.584;2023-07-31T01:39:52;100763.28;;;18.26;73.51
23016;BME280;11674;52.428;13.584;2023-07-31T01:44:59;100758.19;;;18.28;73.47
23016;BME280;11674;52.428;13.584;2023-07-31T01:50:07;100755.03;;;18.30;73.66
23016;BME280;11674;52.428;13.584;2023-07-31T01:55:13;100759.97;;;18.33;73.82
23016;BME280;11674;52.428;13.584;2023-07-31T02:00:20;100748.88;;;18.36;73.69
23016;BME280;11674;52.428;13.584;2023-07-31T02:05:28;100734.50;;;18.38;73.95
23016;BME280;11674;52.428;13.584;2023-07-31T02:10:35;100739.97;;;18.34;73.95
23016;BME280;11674;52.428;13.584;2023-07-31T02:15:41;100739.81;;;18.31;74.35
23016;BME280;11674;52.428;13.584;2023-07-31T02:20:52;100742.63;;;18.31;74.36
23016;BME280;11674;52.428;13.584;2023-07-31T02:26:00;100729.38;;;18.31;74.46
23016;BME280;11674;52.428;13.584;2023-07-31T02:31:06;100720.16;;;18.31;74.46
23016;BME280;11674;52.428;13.584;2023-07-31T02:36:14;100712.91;;;18.30;74.36
23016;BME280;11674;52.428;13.584;2023-07-31T02:41:27;100714.53;;;18.31;74.76
23016;BME280;11674;52.428;13.584;2023-07-31T02:46:36;100712.41;;;18.28;74.59
23016;BME280;11674;52.428;13.584;2023-07-31T02:51:42;100714.41;;;18.27;74.56
23016;BME280;11674;52.428;13.584;2023-07-31T02:56:49;100709.13;;;18.26;75.05
23016;BME280;11674;52.428;13.584;2023-07-31T03:01:56;100716.91;;;18.20;74.78
23016;BME280;11674;52.428;13.584;2023-07-31T03:07:04;100709.13;;;18.05;75.11
23016;BME280;11674;52.428;13.584;2023-07-31T03:12:10;100706.91;;;17.90;75.37
23016;BME280;11674;52.428;13.584;2023-07-31T03:17:18;100715.41;;;17.82;75.44
23016;BME280;11674;52.428;13.584;2023-07-31T03:22:24;100704.84;;;17.79;75.48
23016;BME280;11674;52.428;13.584;2023-07-31T03:27:31;100702.72;;;17.76;75.74
23016;BME280;11674;52.428;13.584;2023-07-31T03:32:38;100686.88;;;17.71;75.62
23016;BME280;11674;52.428;13.584;2023-07-31T03:37:45;100692.84;;;17.70;75.92
23016;BME280;11674;52.428;13.584;2023-07-31T03:42:52;100686.09;;;17.71;75.81
23016;BME280;11674;52.428;13.584;2023-07-31T03:47:59;100690.19;;;17.73;76.13
23016;BME280;11674;52.428;13.584;2023-07-31T03:53:06;100686.69;;;17.76;75.94
23016;BME280;11674;52.428;13.584;2023-07-31T03:58:13;100687.16;;;17.78;76.21
23016;BME280;11674;52.428;13.584;2023-07-31T04:03:20;100683.34;;;17.83;76.27
23016;BME280;11674;52.428;13.584;2023-07-31T04:08:27;100679.38;;;17.84;76.33
23016;BME280;11674;52.428;13.584;2023-07-31T04:13:34;100673.91;;;17.87;76.29
23016;BME280;11674;52.428;13.584;2023-07-31T04:18:41;100674.03;;;17.91;76.89
23016;BME280;11674;52.428;13.584;2023-07-31T04:23:58;100663.44;;;17.96;76.74
23016;BME280;11674;52.428;13.584;2023-07-31T04:29:05;100673.38;;;17.94;76.95
23016;BME280;11674;52.428;13.584;2023-07-31T04:34:12;100659.53;;;17.89;76.88
23016;BME280;11674;52.428;13.584;2023-07-31T04:39:19;100661.88;;;17.87;76.72
23016;BME280;11674;52.428;13.584;2023-07-31T04:44:26;100661.50;;;17.88;76.82
23016;BME280;11674;52.428;13.584;2023-07-31T04:49:33;100653.91;;;17.89;76.95
23016;BME280;11674;52.428;13.584;2023-07-31T04:54:40;100647.47;;;17.88;77.26
23016;BME280;11674;52.428;13.584;2023-07-31T04:59:47;100633.94;;;17.90;77.27
23016;BME280;11674;52.428;13.584;2023-07-31T05:04:54;100645.97;;;17.91;77.40
23016;BME280;11674;52.428;13.584;2023-07-31T05:10:02;100646.25;;;17.98;77.63
23016;BME280;11674;52.428;13.584;2023-07-31T05:15:09;100650.75;;;18.11;77.84
23016;BME280;11674;52.428;13.584;2023-07-31T05:20:16;100639.72;;;18.26;77.91
23016;BME280;11674;52.428;13.584;2023-07-31T05:25:22;100643.16;;;18.32;77.98
23016;BME280;11674;52.428;13.584;2023-07-31T05:30:36;100636.38;;;18.33;78.13
23016;BME280;11674;52.428;13.584;2023-07-31T05:35:43;100631.44;;;18.30;78.34
23016;BME280;11674;52.428;13.584;2023-07-31T05:40:50;100639.88;;;18.30;78.54
23016;BME280;11674;52.428;13.584;2023-07-31T05:45:57;100639.50;;;18.31;78.41
23016;BME280;11674;52.428;13.584;2023-07-31T05:51:05;100631.38;;;18.38;78.68
23016;BME280;11674;52.428;13.584;2023-07-31T05:56:11;100631.16;;;18.43;78.60
23016;BME280;11674;52.428;13.584;2023-07-31T06:01:19;100627.31;;;18.48;78.70
23016;BME280;11674;52.428;13.584;2023-07-31T06:06:25;100632.94;;;18.48;78.98
23016;BME280;11674;52.428;13.584;2023-07-31T06:11:33;100623.94;;;18.54;78.89
23016;BME280;11674;52.428;13.584;2023-07-31T06:16:40;100623.50;;;18.64;79.01
23016;BME280;11674;52.428;13.584;2023-07-31T06:21:46;100625.72;;;18.71;79.38
23016;BME280;11674;52.428;13.584;2023-07-31T06:26:53;100622.00;;;18.67;79.45
23016;BME280;11674;52.428;13.584;2023-07-31T06:32:01;100623.34;;;18.61;79.63
23016;BME280;11674;52.428;13.584;2023-07-31T06:37:07;100617.06;;;18.64;79.91
23016;BME280;11674;52.428;13.584;2023-07-31T06:42:14;100617.78;;;18.73;79.97
23016;BME280;11674;52.428;13.584;2023-07-31T06:47:21;100620.22;;;18.74;79.94
23016;BME280;11674;52.428;13.584;2023-07-31T06:52:28;100618.72;;;18.77;79.94
23016;BME280;11674;52.428;13.584;2023-07-31T06:57:35;100607.13;;;18.78;80.09
23016;BME280;11674;52.428;13.584;2023-07-31T07:02:43;100613.22;;;18.80;80.00
23016;BME280;11674;52.428;13.584;2023-07-31T07:07:50;100611.56;;;18.79;80.30
23016;BME280;11674;52.428;13.584;2023-07-31T07:12:56;100606.41;;;18.69;80.22
23016;BME280;11674;52.428;13.584;2023-07-31T07:18:03;100619.97;;;18.55;80.34
23016;BME280;11674;52.428;13.584;2023-07-31T07:23:10;100616.91;;;18.48;80.35
23016;BME280;11674;52.428;13.584;2023-07-31T07:28:17;100622.63;;;18.40;80.61
23016;BME280;11674;52.428;13.584;2023-07-31T07:33:25;100623.88;;;18.42;80.41
23016;BME280;11674;52.428;13.584;2023-07-31T07:38:32;100614.56;;;18.50;80.83
23016;BME280;11674;52.428;13.584;2023-07-31T07:43:38;100611.22;;;18.69;81.32
23016;BME280;11674;52.428;13.584;2023-07-31T07:48:46;100601.16;;;18.92;81.25
23016;BME280;11674;52.428;13.584;2023-07-31T07:53:53;100584.78;;;19.18;81.28
23016;BME280;11674;52.428;13.584;2023-07-31T07:59:00;100590.03;;;19.43;81.22
23016;BME280;11674;52.428;13.584;2023-07-31T08:04:06;100589.66;;;19.69;81.32
23016;BME280;11674;52.428;13.584;2023-07-31T08:09:14;100589.53;;;19.77;80.71
23016;BME280;11674;52.428;13.584;2023-07-31T08:14:21;100589.97;;;19.79;80.78
23016;BME280;11674;52.428;13.584;2023-07-31T08:19:28;100591.34;;;19.58;80.27
23016;BME280;11674;52.428;13.584;2023-07-31T08:24:35;100589.38;;;19.34;80.31
23016;BME280;11674;52.428;13.584;2023-07-31T08:29:42;100584.94;;;19.33;80.90
23016;BME280;11674;52.428;13.584;2023-07-31T08:34:49;100585.97;;;19.29;80.85
23016;BME280;11674;52.428;13.584;2023-07-31T08:39:56;100576.84;;;19.32;81.19
23016;BME280;11674;52.428;13.584;2023-07-31T08:45:03;100574.81;;;19.44;81.39
23016;BME280;11674;52.428;13.584;2023-07-31T08:50:12;100571.41;;;19.63;80.97
23016;BME280;11674;52.428;13.584;2023-07-31T08:55:19;100563.19;;;19.58;81.29
23016;BME280;11674;52.428;13.584;2023-07-31T09:00:26;100570.63;;;19.78;81.43
23016;BME280;11674;52.428;13.584;2023-07-31T09:05:39;100568.50;;;19.87;81.63
23016;BME280;11674;52.428;13.584;2023-07-31T09:10:48;100564.59;;;19.91;81.26
23016;BME280;11674;52.428;13.584;2023-07-31T09:15:55;100570.09;;;20.00;81.42
23016;BME280;11674;52.428;13.584;2023-07-31T09:21:02;100579.72;;;20.11;81.60
23016;BME280;11674;52.428;13.584;2023-07-31T09:26:10;100574.19;;;20.30;81.80
23016;BME280;11674;52.428;13.584;2023-07-31T09:31:31;100584.78;;;20.48;81.01
23016;BME280;11674;52.428;13.584;2023-07-31T09:36:44;100571.47;;;20.33;80.50
23016;BME280;11674;52.428;13.584;2023-07-31T09:41:55;100570.63;;;20.17;79.75
23016;BME280;11674;52.428;13.584;2023-07-31T09:47:02;100575.00;;;20.03;79.73
23016;BME280;11674;52.428;13.584;2023-07-31T09:52:11;100570.06;;;20.12;80.18
23016;BME280;11674;52.428;13.584;2023-07-31T09:57:21;100559.59;;;20.12;80.17
23016;BME280;11674;52.428;13.584;2023-07-31T10:02:29;100555.25;;;20.15;79.55
23016;BME280;11674;52.428;13.584;2023-07-31T10:07:38;100550.72;;;20.26;80.09
23016;BME280;11674;52.428;13.584;2023-07-31T10:12:45;100538.59;;;20.53;79.86
23016;BME280;11674;52.428;13.584;2023-07-31T10:17:53;100539.88;;;20.55;79.63
23016;BME280;11674;52.428;13.584;2023-07-31T10:23:01;100536.50;;;20.50;79.99
23016;BME280;11674;52.428;13.584;2023-07-31T10:28:09;100531.78;;;20.54;79.45
23016;BME280;11674;52.428;13.584;2023-07-31T10:33:18;100542.06;;;20.46;79.37
23016;BME280;11674;52.428;13.584;2023-07-31T10:38:25;100539.06;;;20.55;79.65
23016;BME280;11674;52.428;13.584;2023-07-31T10:43:32;100536.72;;;20.72;79.57
23016;BME280;11674;52.428;13.584;2023-07-31T10:48:41;100533.56;;;20.89;79.70
23016;BME280;11674;52.428;13.584;2023-07-31T10:53:48;100522.50;;;21.00;80.07
23016;BME280;11674;52.428;13.584;2023-07-31T10:59:01;100497.97;;;21.54;80.25
23016;BME280;11674;52.428;13.584;2023-07-31T11:04:10;100489.88;;;22.09;80.01
23016;BME280;11674;52.428;13.584;2023-07-31T11:09:18;100475.25;;;22.68;79.26
23016;BME280;11674;52.428;13.584;2023-07-31T11:14:25;100480.72;;;23.06;79.17
23016;BME280;11674;52.428;13.584;2023-07-31T11:19:32;100465.84;;;23.38;78.53
23016;BME280;11674;52.428;13.584;2023-07-31T11:24:39;100473.22;;;23.43;76.61
23016;BME280;11674;52.428;13.584;2023-07-31T11:29:46;100471.47;;;23.35;75.29
23016;BME280;11674;52.428;13.584;2023-07-31T11:34:53;100462.25;;;23.41;74.41
23016;BME280;11674;52.428;13.584;2023-07-31T11:40:01;100466.88;;;23.53;74.13
23016;BME280;11674;52.428;13.584;2023-07-31T11:45:09;100461.41;;;23.70;72.63
23016;BME280;11674;52.428;13.584;2023-07-31T11:50:16;100463.41;;;23.66;71.07
23016;BME280;11674;52.428;13.584;2023-07-31T11:55:23;100453.94;;;23.52;70.30
23016;BME280;11674;52.428;13.584;2023-07-31T12:00:30;100459.47;;;23.45;69.08
23016;BME280;11674;52.428;13.584;2023-07-31T12:05:37;100450.69;;;23.24;68.28
23016;BME280;11674;52.428;13.584;2023-07-31T12:10:44;100450.13;;;23.15;67.69
23016;BME280;11674;52.428;13.584;2023-07-31T12:15:55;100448.69;;;23.24;68.38
23016;BME280;11674;52.428;13.584;2023-07-31T12:21:05;100444.44;;;23.41;68.81
23016;BME280;11674;52.428;13.584;2023-07-31T12:26:16;100444.03;;;23.39;67.94
23016;BME280;11674;52.428;13.584;2023-07-31T12:31:23;100445.28;;;23.41;68.07
23016;BME280;11674;52.428;13.584;2023-07-31T12:36:30;100442.13;;;23.50;68.13
23016;BME280;11674;52.428;13.584;2023-07-31T12:41:37;100441.81;;;23.25;67.61
23016;BME280;11674;52.428;13.584;2023-07-31T12:46:44;100424.25;;;23.16;67.86
23016;BME280;11674;52.428;13.584;2023-07-31T12:51:51;100425.66;;;23.26;67.89
23016;BME280;11674;52.428;13.584;2023-07-31T12:56:58;100417.97;;;23.59;67.78
23016;BME280;11674;52.428;13.584;2023-07-31T13:02:05;100416.16;;;23.74;67.18
23016;BME280;11674;52.428;13.584;2023-07-31T13:07:12;100392.25;;;24.08;67.35
23016;BME280;11674;52.428;13.584;2023-07-31T13:12:19;100405.00;;;24.28;66.28
23016;BME280;11674;52.428;13.584;2023-07-31T13:17:26;100400.25;;;23.99;65.25
23016;BME280;11674;52.428;13.584;2023-07-31T13:22:40;100395.03;;;23.68;64.42
23016;BME280;11674;52.428;13.584;2023-07-31T13:27:47;100387.34;;;23.68;65.45
23016;BME280;11674;52.428;13.584;2023-07-31T13:32:54;100390.97;;;23.65;65.19
23016;BME280;11674;52.428;13.584;2023-07-31T13:38:01;100381.44;;;23.51;65.24
23016;BME280;11674;52.428;13.584;2023-07-31T13:43:08;100383.53;;;23.54;65.44
23016;BME280;11674;52.428;13.584;2023-07-31T13:48:15;100374.91;;;23.80;65.97
23016;BME280;11674;52.428;13.584;2023-07-31T13:53:22;100370.38;;;24.08;64.58
23016;BME280;11674;52.428;13.584;2023-07-31T13:58:29;100370.66;;;24.40;64.49
23016;BME280;11674;52.428;13.584;2023-07-31T14:03:36;100350.25;;;24.67;65.01
23016;BME280;11674;52.428;13.584;2023-07-31T14:08:43;100354.03;;;24.92;65.27
23016;BME280;11674;52.428;13.584;2023-07-31T14:13:50;100344.25;;;24.86;64.75
23016;BME280;11674;52.428;13.584;2023-07-31T14:18:57;100346.72;;;24.88;64.18
23016;BME280;11674;52.428;13.584;2023-07-31T14:24:04;100346.72;;;24.88;64.13
23016;BME280;11674;52.428;13.584;2023-07-31T14:29:11;100341.00;;;24.81;63.76
23016;BME280;11674;52.428;13.584;2023-07-31T14:34:18;100348.09;;;24.57;63.56
23016;BME280;11674;52.428;13.584;2023-07-31T14:39:25;100339.81;;;24.35;63.23
23016;BME280;11674;52.428;13.584;2023-07-31T14:44:32;100319.09;;;24.27;63.35
23016;BME280;11674;52.428;13.584;2023-07-31T14:49:39;100326.38;;;24.28;63.47
23016;BME280;11674;52.428;13.584;2023-07-31T14:54:46;100319.97;;;24.35;63.82
23016;BME280;11674;52.428;13.584;2023-07-31T14:59:53;100300.09;;;24.31;64.19
23016;BME280;11674;52.428;13.584;2023-07-31T15:05:00;100313.47;;;24.34;64.30
23016;BME280;11674;52.428;13.584;2023-07-31T15:10:07;100307.78;;;24.34;64.04
23016;BME280;11674;52.428;13.584;2023-07-31T15:15:15;100301.72;;;24.32;64.20
23016;BME280;11674;52.428;13.584;2023-07-31T15:20:22;100290.66;;;24.17;63.81
23016;BME280;11674;52.428;13.584;2023-07-31T15:25:29;100287.34;;;24.08;63.97
23016;BME280;11674;52.428;13.584;2023-07-31T15:30:36;100273.47;;;23.96;63.35
23016;BME280;11674;52.428;13.584;2023-07-31T15:35:43;100283.19;;;23.95;62.99
23016;BME280;11674;52.428;13.584;2023-07-31T15:40:50;100272.44;;;23.78;63.24
23016;BME280;11674;52.428;13.584;2023-07-31T15:45:57;100271.19;;;23.72;63.51
23016;BME280;11674;52.428;13.584;2023-07-31T15:51:04;100255.06;;;23.79;64.48
23016;BME280;11674;52.428;13.584;2023-07-31T15:56:11;100243.56;;;24.02;64.33
23016;BME280;11674;52.428;13.584;2023-07-31T16:01:18;100240.06;;;24.26;64.82
23016;BME280;11674;52.428;13.584;2023-07-31T16:06:25;100236.94;;;24.41;63.97
23016;BME280;11674;52.428;13.584;2023-07-31T16:11:32;100228.44;;;24.45;64.41
23016;BME280;11674;52.428;13.584;2023-07-31T16:16:39;100233.34;;;24.48;64.26
23016;BME280;11674;52.428;13.584;2023-07-31T16:21:46;100251.88;;;24.35;62.87
23016;BME280;11674;52.428;13.584;2023-07-31T16:26:53;100274.88;;;24.16;61.73
23016;BME280;11674;52.428;13.584;2023-07-31T16:32:00;100267.00;;;23.99;61.50
23016;BME280;11674;52.428;13.584;2023-07-31T16:37:07;100279.00;;;23.85;61.22
23016;BME280;11674;52.428;13.584;2023-07-31T16:42:14;100283.72;;;23.71;60.96
23016;BME280;11674;52.428;13.584;2023-07-31T16:47:21;100268.28;;;23.65;61.07
23016;BME280;11674;52.428;13.584;2023-07-31T16:52:28;100251.28;;;23.61;61.10
23016;BME280;11674;52.428;13.584;2023-07-31T16:57:35;100237.97;;;23.65;61.23
23016;BME280;11674;52.428;13.584;2023-07-31T17:02:42;100223.03;;;23.72;61.94
23016;BME280;11674;52.428;13.584;2023-07-31T17:07:49;100216.19;;;23.76;61.84
23016;BME280;11674;52.428;13.584;2023-07-31T17:12:56;100218.66;;;23.81;61.98
23016;BME280;11674;52.428;13.584;2023-07-31T17:18:03;100217.44;;;23.79;61.89
23016;BME280;11674;52.428;13.584;2023-07-31T17:23:10;100216.97;;;23.73;62.22
23016;BME280;11674;52.428;13.584;2023-07-31T17:28:17;100233.91;;;23.66;60.85
23016;BME280;11674;52.428;13.584;2023-07-31T17:33:24;100236.28;;;23.61;61.57
23016;BME280;11674;52.428;13.584;2023-07-31T17:38:31;100232.16;;;23.51;61.26
23016;BME280;11674;52.428;13.584;2023-07-31T17:43:38;100237.31;;;23.42;61.52
23016;BME280;11674;52.428;13.584;2023-07-31T17:48:45;100223.47;;;23.34;61.51
23016;BME280;11674;52.428;13.584;2023-07-31T17:53:52;100233.91;;;23.26;61.17
23016;BME280;11674;52.428;13.584;2023-07-31T17:58:59;100246.38;;;23.18;61.41
23016;BME280;11674;52.428;13.584;2023-07-31T18:04:06;100241.81;;;23.14;61.08
23016;BME280;11674;52.428;13.584;2023-07-31T18:09:13;100237.31;;;23.06;61.09
23016;BME280;11674;52.428;13.584;2023-07-31T18:14:20;100227.16;;;23.01;61.50
23016;BME280;11674;52.428;13.584;2023-07-31T18:19:27;100228.28;;;22.97;61.82
23016;BME280;11674;52.428;13.584;2023-07-31T18:24:34;100227.34;;;22.86;61.84
23016;BME280;11674;52.428;13.584;2023-07-31T18:29:41;100219.66;;;22.83;62.16
23016;BME280;11674;52.428;13.584;2023-07-31T18:34:48;100230.53;;;22.81;62.33
23016;BME280;11674;52.428;13.584;2023-07-31T18:39:55;100226.47;;;22.82;62.78
23016;BME280;11674;52.428;13.584;2023-07-31T18:45:02;100213.53;;;22.81;63.25
23016;BME280;11674;52.428;13.584;2023-07-31T18:50:09;100214.34;;;22.78;63.39
23016;BME280;11674;52.428;13.584;2023-07-31T18:55:16;100213.44;;;22.70;63.12
23016;BME280;11674;52.428;13.584;2023-07-31T19:00:23;100218.59;;;22.65;63.39
23016;BME280;11674;52.428;13.584;2023-07-31T19:05:30;100206.41;;;22.61;63.91
23016;BME280;11674;52.428;13.584;2023-07-31T19:10:37;100204.41;;;22.61;64.12
23016;BME280;11674;52.428;13.584;2023-07-31T19:15:45;100199.50;;;22.58;64.37
23016;BME280;11674;52.428;13.584;2023-07-31T19:20:52;100205.91;;;22.52;64.53
23016;BME280;11674;52.428;13.584;2023-07-31T19:25:59;100199.38;;;22.48;64.71
23016;BME280;11674;52.428;13.584;2023-07-31T19:31:06;100196.88;;;22.43;65.38
23016;BME280;11674;52.428;13.584;2023-07-31T19:36:13;100195.94;;;22.35;65.28
23016;BME280;11674;52.428;13.584;2023-07-31T19:41:20;100186.56;;;22.28;65.66
23016;BME280;11674;52.428;13.584;2023-07-31T19:46:27;100184.78;;;22.16;65.93
23016;BME280;11674;52.428;13.584;2023-07-31T19:51:34;100183.81;;;22.05;65.92
23016;BME280;11674;52.428;13.584;2023-07-31T19:56:41;100175.59;;;21.97;66.43
23016;BME280;11674;52.428;13.584;2023-07-31T20:01:48;100180.41;;;21.93;66.16
23016;BME280;11674;52.428;13.584;2023-07-31T20:06:55;100158.44;;;21.83;66.46
23016;BME280;11674;52.428;13.584;2023-07-31T20:12:02;100157.56;;;21.79;67.03
23016;BME280;11674;52.428;13.584;2023-07-31T20:17:09;100155.53;;;21.76;66.82
23016;BME280;11674;52.428;13.584;2023-07-31T20:22:16;100149.81;;;21.72;67.15
23016;BME280;11674;52.428;13.584;2023-07-31T20:27:23;100140.38;;;21.65;67.58
23016;BME280;11674;52.428;13.584;2023-07-31T20:32:30;100131.84;;;21.61;67.57
23016;BME280;11674;52.428;13.584;2023-07-31T20:37:37;100133.38;;;21.55;67.81
23016;BME280;11674;52.428;13.584;2023-07-31T20:42:57;100124.03;;;21.51;67.58
23016;BME280;11674;52.428;13.584;2023-07-31T20:48:04;100106.22;;;21.47;68.19
23016;BME280;11674;52.428;13.584;2023-07-31T20:53:11;100109.38;;;21.42;68.03
23016;BME280;11674;52.428;13.584;2023-07-31T20:58:18;100103.22;;;21.37;68.41
23016;BME280;11674;52.428;13.584;2023-07-31T21:03:25;100094.69;;;21.33;68.41
23016;BME280;11674;52.428;13.584;2023-07-31T21:08:32;100093.44;;;21.31;68.32
23016;BME280;11674;52.428;13.584;2023-07-31T21:13:39;100080.50;;;21.26;68.86
23016;BME280;11674;52.428;13.584;2023-07-31T21:18:46;100063.97;;;21.28;68.76
23016;BME280;11674;52.428;13.584;2023-07-31T21:23:53;100055.88;;;21.27;69.21
23016;BME280;11674;52.428;13.584;2023-07-31T21:29:00;100052.28;;;21.26;69.06
23016;BME280;11674;52.428;13.584;2023-07-31T21:34:07;100043.34;;;21.24;69.41
23016;BME280;11674;52.428;13.584;2023-07-31T21:39:14;100034.50;;;21.26;69.47
23016;BME280;11674;52.428;13.584;2023-07-31T21:44:21;100029.63;;;21.23;69.39
23016;BME280;11674;52.428;13.584;2023-07-31T21:49:28;100028.06;;;21.25;69.53
23016;BME280;11674;52.428;13.584;2023-07-31T21:54:35;100016.38;;;21.27;69.49
23016;BME280;11674;52.428;13.584;2023-07-31T21:59:42;100016.38;;;21.27;69.72
23016;BME280;11674;52.428;13.584;2023-07-31T22:04:49;100011.97;;;21.29;69.70
23016;BME280;11674;52.428;13.584;2023-07-31T22:09:56;100008.78;;;21.31;69.79
23016;BME280;11674;52.428;13.584;2023-07-31T22:15:03;100004.38;;;21.33;69.40
23016;BME280;11674;52.428;13.584;2023-07-31T22:20:10;99991.53;;;21.36;69.41
23016;BME280;11674;52.428;13.584;2023-07-31T22:25:17;99984.69;;;21.37;69.75
23016;BME280;11674;52.428;13.584;2023-07-31T22:30:24;99977.41;;;21.36;69.78
23016;BME280;11674;52.428;13.584;2023-07-31T22:35:31;99968.94;;;21.36;69.41
23016;BME280;11674;52.428;13.584;2023-07-31T22:40:38;99958.47;;;21.36;69.40
23016;BME280;11674;52.428;13.584;2023-07-31T22:45:46;99952.06;;;21.39;69.51
23016;BME280;11674;52.428;13.584;2023-07-31T22:50:53;99943.22;;;21.41;69.63
23016;BME280;11674;52.428;13.584;2023-07-31T22:56:04;99933.59;;;21.45;69.14
23016;BME280;11674;52.428;13.584;2023-07-31T23:01:11;99915.91;;;21.48;69.22
23016;BME280;11674;52.428;13.584;2023-07-31T23:06:18;99906.25;;;21.53;69.15
23016;BME280;11674;52.428;13.584;2023-07-31T23:11:25;99904.72;;;21.59;69.08
23016;BME280;11674;52.428;13.584;2023-07-31T23:16:32;99896.72;;;21.64;69.01
23016;BME280;11674;52.428;13.584;2023-07-31T23:21:39;99894.38;;;21.70;68.85
23016;BME280;11674;52.428;13.584;2023-07-31T23:26:46;99883.16;;;21.73;68.63
23016;BME280;11674;52.428;13.584;2023-07-31T23:31:53;99877.91;;;21.72;68.20
23016;BME280;11674;52.428;13.584;2023-07-31T23:37:00;99877.34;;;21.63;67.89
23016;BME280;11674;52.428;13.584;2023-07-31T23:42:07;99867.13;;;21.51;67.66
23016;BME280;11674;52.428;13.584;2023-07-31T23:47:14;99873.75;;;21.33;67.91
23016;BME280;11674;52.428;13.584;2023-07-31T23:52:21;99850.47;;;21.10;68.15
23016;BME280;11674;52.428;13.584;2023-07-31T23:57:28;99853.44;;;20.91;68.65
